createdAt,value
2022-08-01T00:02:21.838Z,20.40
2022-08-01T00:05:22.736Z,20.30
2022-08-01T00:08:23.542Z,20.20
2022-08-01T00:11:24.710Z,20.10
2022-08-01T00:14:32.401Z,20.00
2022-08-01T00:17:34.082Z,19.80
2022-08-01T00:20:35.083Z,19.70
2022-08-01T00:23:36.341Z,19.50
2022-08-01T00:26:37.616Z,19.50
2022-08-01T00:30:09.523Z,19.50
2022-08-01T00:33:00.028Z,19.50
2022-08-01T00:36:01.326Z,19.60
2022-08-01T00:39:02.734Z,19.70
2022-08-01T00:42:14.137Z,19.80
2022-08-01T00:45:15.170Z,20.00
2022-08-01T00:48:16.140Z,20.20
2022-08-01T00:51:18.591Z,20.20
2022-08-01T00:54:20.262Z,20.10
2022-08-01T00:58:02.445Z,20.10
2022-08-01T01:00:53.511Z,19.90
2022-08-01T01:03:59.013Z,19.90
2022-08-01T01:07:36.793Z,20.00
2022-08-01T01:11:04.886Z,19.90
2022-08-01T01:14:24.441Z,19.80
2022-08-01T01:17:54.276Z,19.90
2022-08-01T01:21:19.361Z,19.90
2022-08-01T01:24:39.606Z,19.90
2022-08-01T01:27:51.092Z,20.10
2022-08-01T01:30:56.559Z,20.30
2022-08-01T01:34:02.021Z,20.50
2022-08-01T01:37:07.941Z,20.50
2022-08-01T01:40:12.062Z,20.60
2022-08-01T01:43:15.804Z,20.70
2022-08-01T01:46:23.818Z,20.70
2022-08-01T01:49:29.440Z,20.60
2022-08-01T01:52:33.350Z,20.70
2022-08-01T01:55:49.827Z,20.60
2022-08-01T01:59:03.134Z,20.50
2022-08-01T02:02:07.602Z,20.50
2022-08-01T02:05:12.515Z,20.30
2022-08-01T02:08:17.675Z,20.20
2022-08-01T02:11:20.850Z,20.10
2022-08-01T02:14:24.683Z,20.10
2022-08-01T02:17:27.790Z,20.00
2022-08-01T02:20:31.826Z,20.00
2022-08-01T02:23:40.208Z,19.60
2022-08-01T02:26:48.683Z,19.60
2022-08-01T02:30:05.993Z,19.40
2022-08-01T02:33:20.436Z,19.50
2022-08-01T02:36:30.522Z,19.40
2022-08-01T02:39:37.270Z,19.30
2022-08-01T02:42:43.822Z,19.20
2022-08-01T02:45:52.711Z,19.40
2022-08-01T02:48:59.503Z,19.30
2022-08-01T02:52:08.410Z,19.20
2022-08-01T02:55:11.934Z,19.00
2022-08-01T02:58:17.536Z,19.00
2022-08-01T03:01:22.183Z,19.00
2022-08-01T03:04:25.488Z,19.00
2022-08-01T03:07:34.288Z,19.10
2022-08-01T03:10:40.156Z,19.00
2022-08-01T03:13:46.889Z,19.00
2022-08-01T03:16:50.615Z,18.90
2022-08-01T03:19:54.448Z,19.00
2022-08-01T03:22:59.438Z,18.90
2022-08-01T03:26:03.256Z,18.80
2022-08-01T03:29:10.954Z,18.50
2022-08-01T03:32:15.030Z,18.20
2022-08-01T03:35:16.819Z,18.10
2022-08-01T03:38:24.250Z,18.30
2022-08-01T03:41:30.508Z,18.40
2022-08-01T03:44:40.257Z,18.30
2022-08-01T03:47:47.706Z,18.00
2022-08-01T03:50:53.492Z,17.80
2022-08-01T03:53:57.146Z,17.70
2022-08-01T03:56:59.773Z,17.80
2022-08-01T04:00:02.008Z,18.00
2022-08-01T04:03:16.427Z,18.00
2022-08-01T04:06:18.379Z,18.10
2022-08-01T04:09:19.804Z,18.10
2022-08-01T04:12:21.515Z,18.10
2022-08-01T04:15:22.549Z,18.10
2022-08-01T04:18:23.756Z,18.20
2022-08-01T04:21:31.791Z,18.30
2022-08-01T04:24:36.880Z,18.40
2022-08-01T04:27:49.991Z,18.30
2022-08-01T04:31:01.636Z,18.30
2022-08-01T04:34:06.991Z,18.20
2022-08-01T04:37:13.147Z,18.30
2022-08-01T04:40:17.202Z,18.40
2022-08-01T04:43:20.032Z,18.40
2022-08-01T04:46:21.275Z,18.30
2022-08-01T04:49:25.651Z,18.30
2022-08-01T04:52:35.922Z,18.20
2022-08-01T04:55:37.202Z,18.30
2022-08-01T04:58:38.356Z,18.40
2022-08-01T05:01:39.246Z,18.50
2022-08-01T05:04:42.504Z,18.80
2022-08-01T05:07:45.049Z,19.00
2022-08-01T05:10:46.831Z,19.10
2022-08-01T05:13:47.696Z,19.20
2022-08-01T05:16:49.267Z,19.20
2022-08-01T05:19:50.687Z,19.20
2022-08-01T05:22:51.859Z,19.30
2022-08-01T05:25:56.605Z,19.40
2022-08-01T05:28:58.629Z,19.50
2022-08-01T05:32:00.355Z,19.60
2022-08-01T05:35:01.836Z,19.70
2022-08-01T05:38:02.940Z,19.90
2022-08-01T05:41:03.818Z,20.00
2022-08-01T05:44:05.952Z,20.10
2022-08-01T05:47:07.312Z,20.10
2022-08-01T05:50:08.904Z,20.40
2022-08-01T05:53:10.161Z,20.50
2022-08-01T05:56:11.622Z,20.60
2022-08-01T05:59:12.303Z,20.70
2022-08-01T06:02:13.744Z,20.80
2022-08-01T06:05:15.037Z,20.80
2022-08-01T06:08:16.234Z,20.70
2022-08-01T06:11:17.166Z,20.80
2022-08-01T06:14:17.944Z,20.80
2022-08-01T06:17:19.127Z,21.00
2022-08-01T06:20:20.414Z,21.10
2022-08-01T06:23:31.722Z,21.20
2022-08-01T06:26:33.984Z,21.40
2022-08-01T06:29:36.064Z,21.20
2022-08-01T06:32:37.005Z,21.20
2022-08-01T06:35:37.785Z,21.30
2022-08-01T06:38:39.108Z,21.40
2022-08-01T06:41:42.581Z,21.50
2022-08-01T06:44:43.857Z,21.50
2022-08-01T06:47:50.882Z,21.70
2022-08-01T06:51:09.144Z,21.60
2022-08-01T06:54:10.271Z,21.90
2022-08-01T06:57:11.061Z,22.20
2022-08-01T07:00:14.142Z,22.30
2022-08-01T07:03:15.028Z,22.50
2022-08-01T07:06:16.351Z,22.60
2022-08-01T07:09:17.725Z,22.80
2022-08-01T07:12:19.066Z,22.80
2022-08-01T07:15:23.141Z,22.70
2022-08-01T07:18:26.296Z,22.70
2022-08-01T07:21:40.135Z,22.90
2022-08-01T07:24:45.878Z,23.20
2022-08-01T07:27:47.277Z,23.10
2022-08-01T07:30:48.449Z,22.50
2022-08-01T07:33:50.287Z,22.70
2022-08-01T07:36:53.188Z,23.10
2022-08-01T07:39:54.287Z,23.10
2022-08-01T07:42:55.115Z,23.30
2022-08-01T07:45:56.312Z,23.40
2022-08-01T07:48:57.853Z,23.50
2022-08-01T07:52:03.729Z,23.20
2022-08-01T07:55:06.636Z,23.40
2022-08-01T07:58:07.668Z,23.80
2022-08-01T08:01:08.867Z,24.10
2022-08-01T08:04:09.745Z,24.30
2022-08-01T08:07:10.978Z,24.50
2022-08-01T08:10:11.769Z,24.90
2022-08-01T08:13:13.028Z,24.90
2022-08-01T08:16:14.836Z,24.90
2022-08-01T08:19:15.603Z,25.20
2022-08-01T08:22:16.700Z,25.50
2022-08-01T08:25:20.164Z,25.80
2022-08-01T08:28:25.244Z,26.20
2022-08-01T08:31:51.690Z,25.70
2022-08-01T08:34:50.024Z,25.60
2022-08-01T08:37:51.008Z,25.50
2022-08-01T08:40:58.019Z,25.60
2022-08-01T08:44:00.299Z,25.60
2022-08-01T08:47:06.414Z,25.60
2022-08-01T08:50:11.157Z,25.70
2022-08-01T08:53:19.000Z,25.90
2022-08-01T08:56:21.734Z,25.10
2022-08-01T08:59:25.485Z,25.40
2022-08-01T09:02:26.481Z,25.10
2022-08-01T09:05:38.820Z,26.30
2022-08-01T09:08:41.232Z,26.50
2022-08-01T09:11:42.503Z,27.30
2022-08-01T09:14:48.875Z,26.60
2022-08-01T09:17:50.299Z,27.10
2022-08-01T09:20:51.301Z,28.00
2022-08-01T09:23:55.497Z,27.70
2022-08-01T09:26:57.390Z,28.30
2022-08-01T09:30:13.366Z,28.60
2022-08-01T09:33:21.722Z,28.50
2022-08-01T09:36:27.010Z,27.10
2022-08-01T09:39:41.400Z,27.70
2022-08-01T09:42:42.542Z,27.30
2022-08-01T09:45:45.710Z,28.40
2022-08-01T09:49:07.333Z,28.30
2022-08-01T09:52:26.128Z,28.80
2022-08-01T09:55:30.398Z,28.40
2022-08-01T09:59:01.653Z,28.60
2022-08-01T10:02:03.852Z,29.30
2022-08-01T10:05:08.948Z,29.50
2022-08-01T10:08:11.568Z,29.40
2022-08-01T10:11:13.981Z,30.10
2022-08-01T10:14:20.943Z,30.50
2022-08-01T10:17:50.706Z,30.90
2022-08-01T10:20:48.869Z,31.50
2022-08-01T10:23:50.471Z,32.10
2022-08-01T10:27:09.041Z,31.50
2022-08-01T10:30:19.928Z,31.40
2022-08-01T10:33:52.656Z,31.20
2022-08-01T10:36:47.532Z,31.60
2022-08-01T10:40:13.972Z,32.60
2022-08-01T10:43:21.868Z,32.40
2022-08-01T10:46:24.245Z,31.40
2022-08-01T10:49:32.921Z,30.30
2022-08-01T10:52:39.127Z,32.00
2022-08-01T10:55:51.344Z,33.10
2022-08-01T10:59:06.191Z,33.10
2022-08-01T11:02:08.142Z,33.10
2022-08-01T11:05:21.260Z,33.80
2022-08-01T11:08:27.097Z,34.80
2022-08-01T11:11:28.977Z,33.20
2022-08-01T11:15:02.890Z,34.10
2022-08-01T11:18:31.772Z,34.40
2022-08-01T11:21:57.852Z,33.60
2022-08-01T11:25:01.163Z,32.40
2022-08-01T11:28:31.976Z,33.40
2022-08-01T11:31:37.660Z,34.60
2022-08-01T11:34:56.815Z,35.80
2022-08-01T11:37:57.755Z,35.90
2022-08-01T11:41:17.688Z,35.70
2022-08-01T11:44:26.946Z,34.50
2022-08-01T11:47:49.941Z,33.80
2022-08-01T11:50:57.254Z,34.40
2022-08-01T11:54:00.041Z,36.20
2022-08-01T11:57:10.373Z,36.10
2022-08-01T12:00:17.536Z,37.00
2022-08-01T12:03:34.432Z,36.50
2022-08-01T12:06:35.764Z,34.50
2022-08-01T12:09:36.783Z,34.00
2022-08-01T12:12:43.525Z,35.50
2022-08-01T12:15:46.360Z,35.40
2022-08-01T12:18:48.484Z,35.80
2022-08-01T12:22:10.804Z,37.20
2022-08-01T12:25:18.153Z,37.50
2022-08-01T12:28:19.764Z,37.30
2022-08-01T12:31:33.900Z,36.40
2022-08-01T12:34:35.351Z,36.60
2022-08-01T12:37:42.164Z,37.10
2022-08-01T12:40:52.404Z,34.70
2022-08-01T12:43:54.420Z,34.80
2022-08-01T12:46:56.164Z,34.80
2022-08-01T12:49:57.512Z,32.40
2022-08-01T12:52:59.937Z,33.70
2022-08-01T12:56:01.327Z,32.50
2022-08-01T12:59:03.440Z,31.70
2022-08-01T13:02:10.304Z,30.40
2022-08-01T13:05:12.633Z,31.50
2022-08-01T13:08:23.747Z,30.30
2022-08-01T13:11:28.486Z,30.50
2022-08-01T13:14:30.670Z,30.80
2022-08-01T13:17:38.593Z,31.50
2022-08-01T13:20:39.674Z,31.30
2022-08-01T13:24:03.389Z,34.10
2022-08-01T13:27:05.827Z,35.20
2022-08-01T13:30:19.043Z,34.90
2022-08-01T13:33:20.708Z,33.70
2022-08-01T13:36:28.080Z,35.30
2022-08-01T13:39:45.211Z,36.00
2022-08-01T13:42:45.960Z,37.00
2022-08-01T13:45:46.881Z,34.90
2022-08-01T13:48:48.211Z,35.40
2022-08-01T13:51:51.777Z,34.50
2022-08-01T13:54:52.617Z,32.10
2022-08-01T13:57:54.279Z,31.70
2022-08-01T14:00:56.695Z,31.60
2022-08-01T14:03:58.027Z,34.40
2022-08-01T14:07:01.078Z,33.50
2022-08-01T14:10:18.149Z,31.90
2022-08-01T14:13:20.996Z,32.20
2022-08-01T14:16:25.276Z,35.10
2022-08-01T14:19:38.492Z,36.60
2022-08-01T14:22:41.839Z,36.00
2022-08-01T14:25:59.221Z,33.80
2022-08-01T14:29:04.275Z,34.00
2022-08-01T14:32:05.647Z,32.90
2022-08-01T14:35:07.808Z,33.30
2022-08-01T14:38:09.506Z,35.10
2022-08-01T14:41:10.946Z,34.10
2022-08-01T14:44:11.717Z,31.10
2022-08-01T14:47:15.889Z,33.60
2022-08-01T14:50:22.814Z,35.40
2022-08-01T14:53:24.036Z,36.40
2022-08-01T14:56:25.188Z,35.80
2022-08-01T14:59:26.670Z,33.90
2022-08-01T15:02:27.770Z,35.10
2022-08-01T15:05:29.999Z,34.00
2022-08-01T15:08:31.282Z,34.80
2022-08-01T15:11:34.198Z,34.80
2022-08-01T15:14:50.604Z,37.00
2022-08-01T15:17:53.595Z,36.60
2022-08-01T15:20:55.116Z,34.50
2022-08-01T15:23:56.214Z,34.20
2022-08-01T15:26:57.443Z,35.00
2022-08-01T15:29:58.737Z,36.60
2022-08-01T15:33:00.211Z,36.40
2022-08-01T15:36:01.408Z,34.50
2022-08-01T15:39:03.942Z,31.50
2022-08-01T15:42:20.153Z,31.80
2022-08-01T15:48:48.766Z,31.60
2022-08-01T15:51:51.508Z,32.50
2022-08-01T15:54:52.644Z,33.80
2022-08-01T15:57:53.456Z,34.60
2022-08-01T16:00:54.311Z,35.00
2022-08-01T16:03:56.506Z,34.50
2022-08-01T16:06:57.588Z,34.30
2022-08-01T16:09:58.902Z,34.60
2022-08-01T16:13:05.872Z,34.70
2022-08-01T16:16:09.114Z,35.20
2022-08-01T16:19:10.045Z,34.50
2022-08-01T16:22:20.609Z,33.40
2022-08-01T16:25:21.636Z,32.40
2022-08-01T16:28:22.671Z,32.70
2022-08-01T16:31:50.081Z,33.10
2022-08-01T16:34:46.901Z,33.10
2022-08-01T16:37:48.772Z,33.20
2022-08-01T16:40:50.983Z,33.50
2022-08-01T16:43:54.012Z,32.50
2022-08-01T16:46:55.714Z,31.70
2022-08-01T16:49:56.531Z,31.20
2022-08-01T16:52:57.920Z,32.00
2022-08-01T16:55:58.946Z,32.50
2022-08-01T16:59:00.295Z,32.80
2022-08-01T17:02:02.640Z,32.00
2022-08-01T17:05:07.094Z,31.00
2022-08-01T17:08:11.908Z,30.50
2022-08-01T17:11:13.423Z,30.40
2022-08-01T17:14:15.319Z,30.30
2022-08-01T17:17:16.414Z,30.60
2022-08-01T17:20:17.970Z,30.30
2022-08-01T17:23:19.400Z,30.10
2022-08-01T17:26:20.857Z,29.90
2022-08-01T17:29:22.003Z,29.50
2022-08-01T17:32:23.245Z,28.60
2022-08-01T17:35:24.089Z,28.00
2022-08-01T17:38:25.210Z,27.80
2022-08-01T17:41:26.765Z,27.70
2022-08-01T17:44:27.790Z,27.50
2022-08-01T17:47:48.451Z,27.10
2022-08-01T17:50:50.082Z,26.60
2022-08-01T17:53:57.534Z,26.40
2022-08-01T17:56:58.992Z,26.10
2022-08-01T17:59:59.879Z,25.80
2022-08-01T18:03:01.218Z,25.80
2022-08-01T18:06:03.294Z,25.70
2022-08-01T18:09:04.609Z,25.50
2022-08-01T18:12:10.417Z,25.40
2022-08-01T18:15:15.094Z,25.20
2022-08-01T18:18:19.698Z,25.10
2022-08-01T18:21:37.605Z,24.90
2022-08-01T18:24:42.119Z,24.70
2022-08-01T18:28:16.574Z,24.70
2022-08-01T18:31:06.233Z,24.60
2022-08-01T18:34:07.325Z,24.60
2022-08-01T18:37:09.336Z,24.50
2022-08-01T18:40:13.485Z,24.50
2022-08-01T18:43:17.419Z,24.40
2022-08-01T18:46:18.267Z,24.30
2022-08-01T18:49:20.752Z,24.30
2022-08-01T18:52:22.264Z,24.10
2022-08-01T18:55:29.750Z,24.10
2022-08-01T18:58:30.560Z,24.10
2022-08-01T19:01:31.802Z,24.10
2022-08-01T19:04:33.014Z,24.20
2022-08-01T19:08:04.804Z,24.40
2022-08-01T19:10:54.888Z,24.20
2022-08-01T19:13:56.168Z,23.40
2022-08-01T19:16:57.315Z,22.60
2022-08-01T19:19:58.881Z,22.40
2022-08-01T19:22:59.926Z,22.40
2022-08-01T19:26:04.582Z,22.40
2022-08-01T19:29:35.570Z,22.40
2022-08-01T19:32:39.713Z,22.30
2022-08-01T19:35:40.726Z,22.20
2022-08-01T19:38:42.700Z,22.30
2022-08-01T19:41:48.809Z,22.10
2022-08-01T19:44:51.088Z,22.00
2022-08-01T19:47:56.505Z,22.00
2022-08-01T19:51:02.356Z,21.90
2022-08-01T19:54:10.627Z,21.90
2022-08-01T19:57:15.991Z,21.90
2022-08-01T20:00:27.711Z,21.80
2022-08-01T20:03:32.949Z,21.70
2022-08-01T20:06:35.473Z,21.60
2022-08-01T20:09:40.179Z,21.30
2022-08-01T20:12:41.754Z,21.30
2022-08-01T20:15:44.969Z,21.10
2022-08-01T20:18:45.884Z,21.20
2022-08-01T20:22:03.739Z,21.20
2022-08-01T20:25:06.418Z,21.10
2022-08-01T20:28:11.056Z,21.00
2022-08-01T20:31:13.616Z,21.00
2022-08-01T20:34:22.631Z,21.00
2022-08-01T20:38:04.156Z,21.00
2022-08-01T20:40:49.978Z,20.90
2022-08-01T20:43:57.338Z,20.80
2022-08-01T20:47:03.081Z,20.90
2022-08-01T20:50:27.086Z,20.90
2022-08-01T20:53:49.371Z,20.90
2022-08-01T20:57:07.768Z,20.90
2022-08-01T21:00:10.414Z,20.90
2022-08-01T21:03:22.084Z,20.80
2022-08-01T21:06:36.089Z,20.60
2022-08-01T21:09:39.730Z,20.60
2022-08-01T21:12:54.484Z,20.50
2022-08-01T21:16:24.021Z,20.40
2022-08-01T21:19:31.795Z,20.30
2022-08-01T21:22:41.625Z,19.90
2022-08-01T21:25:44.065Z,19.30
2022-08-01T21:28:54.534Z,19.10
2022-08-01T21:32:23.602Z,19.30
2022-08-01T21:35:27.892Z,19.20
2022-08-01T21:38:30.729Z,18.80
2022-08-01T21:42:01.442Z,18.50
2022-08-01T21:44:58.997Z,18.40
2022-08-01T21:48:00.875Z,18.60
2022-08-01T21:51:29.874Z,18.70
2022-08-01T21:55:10.906Z,18.70
2022-08-01T21:58:35.323Z,18.70
2022-08-01T22:02:04.388Z,18.60
2022-08-01T22:05:12.353Z,18.50
2022-08-01T22:08:17.016Z,18.50
2022-08-01T22:11:30.911Z,18.40
2022-08-01T22:14:38.985Z,18.30
2022-08-01T22:17:41.523Z,18.10
2022-08-01T22:20:43.629Z,18.00
2022-08-01T22:23:44.639Z,17.90
2022-08-01T22:26:48.786Z,17.80
2022-08-01T22:29:58.912Z,17.80
2022-08-01T22:33:07.342Z,17.80
2022-08-01T22:36:19.731Z,17.90
2022-08-01T22:39:20.991Z,17.80
2022-08-01T22:42:38.072Z,17.80
2022-08-01T22:46:04.304Z,17.80
2022-08-01T22:49:29.792Z,17.70
2022-08-01T22:52:37.170Z,17.70
2022-08-01T22:55:59.149Z,17.60
2022-08-01T22:59:08.119Z,17.60
2022-08-01T23:02:15.492Z,17.70
2022-08-01T23:05:24.690Z,17.70
2022-08-01T23:08:27.748Z,17.60
2022-08-01T23:11:30.472Z,17.60
2022-08-01T23:14:35.913Z,17.60
2022-08-01T23:17:38.239Z,17.60
2022-08-01T23:20:39.753Z,17.70
2022-08-01T23:23:41.581Z,17.70
2022-08-01T23:26:43.682Z,17.80
2022-08-01T23:29:48.899Z,17.80
2022-08-01T23:32:49.896Z,17.80
2022-08-01T23:35:51.178Z,17.70
2022-08-01T23:38:52.066Z,17.70
2022-08-01T23:41:58.206Z,17.70
2022-08-01T23:45:00.314Z,17.60
2022-08-01T23:48:01.677Z,17.60
2022-08-01T23:51:04.669Z,17.50
2022-08-01T23:54:06.292Z,17.60
2022-08-01T23:57:08.014Z,17.50
